Okarito, New Zealand
Current Conditions -  °F | °C
As of 12:00 AM on Wednesday 28 Jan 2015 (Local Time) from NZCH Reporting Station
Broken Clouds Broken Clouds  
Wind Chill: 63°   Ceiling: 1500
Heat Index: 63°   Visibility: 6mi
Dew Point: 59°   Wind: 9mph
Humidity: 88%   Direction: 70°ENE
Pressure: 29.94"   Gusts: NA
Location:  43.22°S, 170.17°E
Report Text: NZCH 271200Z AUTO 07008KT 9999 BKN015/// 17/15 Q1014 TEMPOSCT015
Loading
Personal Weather Stations






























Interactive Weather Map New forecast layout! Learn more

10-Day Weather Forecast

Advertisements
Track Severe Weather on mobile